This is the latest recevied weather packets stored in our database for station/object DM8MH-13. If no packets are shown the sender has not sent any weather packets the latest 10 day(s).
| Time | Temp. | Humidity | Pressure | Rain* | Wind** | Luminosity | Snow |
|---|---|---|---|---|---|---|---|
| 1777626071 | 18.33° C | 47% | 1029.5 hPa | 0 mm | - | 666 W/m² | - |
| 1777625470 | 18.33° C | 47% | 1029.6 hPa | 0 mm | - | 652 W/m² | - |
| 1777624871 | 17.22° C | 49% | 1029.6 hPa | 0 mm | - | 618 W/m² | - |
| 1777624271 | 16.67° C | 50% | 1029.6 hPa | 0 mm | - | 559 W/m² | - |
| 1777623671 | 16.67° C | 50% | 1029.7 hPa | 0 mm | - | 499 W/m² | - |
| 1777623071 | 16.11° C | 52% | 1029.7 hPa | 0 mm | - | 453 W/m² | - |
| 1777622471 | 15.56° C | 53% | 1029.8 hPa | 0 mm | - | 452 W/m² | - |
| 1777621871 | 15° C | 54% | 1029.7 hPa | 0 mm | - | 471 W/m² | - |
| 1777621271 | 14.44° C | 56% | 1029.7 hPa | 0 mm | - | 478 W/m² | - |
| 1777620671 | 13.89° C | 59% | 1029.7 hPa | 0 mm | - | 420 W/m² | - |
| 1777620071 | 12.78° C | 63% | 1029.9 hPa | 0 mm | - | 370 W/m² | - |
| 1777618871 | 10.56° C | 68% | 1029.7 hPa | 0 mm | - | 411 W/m² | - |
| 1777618271 | 10.56° C | 69% | 1029.7 hPa | 0 mm | - | 388 W/m² | - |
| 1777617671 | 10° C | 70% | 1029.6 hPa | 0 mm | - | 201 W/m² | - |
| 1777617071 | 10° C | 71% | 1029.6 hPa | 0 mm | - | 336 W/m² | - |
| 1777616471 | 9.44° C | 70% | 1029.6 hPa | 0 mm | - | 313 W/m² | - |
| 1777615870 | 8.89° C | 72% | 1029.5 hPa | 0 mm | - | 283 W/m² | - |
| 1777614671 | 8.33° C | 73% | 1029.5 hPa | 0 mm | - | 236 W/m² | - |
| 1777614071 | 7.78° C | 76% | 1029.6 hPa | 0 mm | - | 208 W/m² | - |
| 1777613471 | 7.22° C | 79% | 1029.4 hPa | 0 mm | - | 186 W/m² | - |
| 1777612871 | 6.67° C | 82% | 1029.4 hPa | 0 mm | - | 161 W/m² | - |
| 1777611670 | 4.44° C | 85% | 1029.2 hPa | 0 mm | - | 104 W/m² | - |
| 1777610470 | 3.89° C | 85% | 1029.1 hPa | 0 mm | - | 55 W/m² | - |
| 1777609871 | 3.89° C | 85% | 1029.1 hPa | 0 mm | - | 26 W/m² | - |
| 1777609271 | 3.89° C | 85% | 1029 hPa | 0 mm | - | 14 W/m² | - |
* Rain latest hour (hover to see other rain measurements)
** Current wind speed in m/s (hover to see current wind gust speed)